Aérodrome :
LOGIN :

S'inscrire | Disclaimer

   EN    FR    IT 

 










Légende :    VFR   VFR Marginal   IFR   IFR Intensif   IFR Très Intensif
Visi : 
Plafond : 
>= 8 km
>= 3000ft
5 à 8 km
1000 à 3000 ft
1500m à 5 km
500 à 1000 ft
800 à 1500m
200 à 500 ft
< 800m
< 200 ft
Symboles :   Orages  Brouillard  Fortes neiges  Fortes précipitations  Vent > 20 kt
SIGMETs :   Divers  Orages  Givrage  Turbulence  Onde Orograph.  Cendres Volcan.






- Altitude de l'aérodrome : 209 ft
- Code IATA : CLY


LFKC - Calvi

DERNIER METAR :
  • 252030Z AUTO VRB02KT 9999 FEW074 SCT140 21/16 Q1016 TEMPO SCT025 FEW050CB BKN080

METARs EXPIRÉS :
  • 252000Z AUTO 12003KT 9999 FEW082 BKN160 21/17 Q1016 TEMPO SCT025 FEW050CB BKN080
  • 251930Z AUTO 21004KT CAVOK 21/17 Q1015 TEMPO SCT025 FEW050CB BKN080
  • 251900Z AUTO 00000KT 9999 FEW086 21/18 Q1015 TEMPO SCT025 FEW050CB BKN080
  • 251830Z AUTO 06005KT 9999 FEW090 22/17 Q1014 TEMPO SCT025 FEW050CB BKN080
  • 251800Z AUTO 05005KT 010V070 9999 FEW062 22/17 Q1014 TEMPO SCT025 FEW050CB BKN080

TAF TAF LFKC
Valide du 25 à 15h jusqu'au 26 à 15h UTC


251400Z 2515/2615 35006KT 9999 FEW060 SCT090 TX27/2612Z TN16/2604Z
TEMPO 2515/2604 SCT025 FEW050CB BKN080
BECMG 2517/2520 18004KT
PROB30
TEMPO 2601/2605 BKN008
BECMG 2610/2612 35010KT
ATIS : +33 4 95 65 82 49



MET'MAP, la Météo Aéronautique d'un coup d'oeil ! - Copyright ORBIFLY Décembre 2007 - Disclaimer

ORBIFLY MET'MAP TEAM :

Programmation & Développement : Alexandra Zaïnal
Sur une idée originale de : Baudouin d'Aumeries
Soutien technique & logistique : Manuel Goepfert
Assistance : Marc-Olivier Méhu

Contact : metmap@orbifly.com




SOURCES & CREDITS :

   NOAA